Time;durP1;ratioP1;P1;durP2;ratioP2;P2;SDS_P1;SDS_P2;PMS_P1;PMS_P2;Temp;Humidity;BMP_temperature;BMP_pressure;BME280_temperature;BME280_humidity;BME280_pressure;Samples;Min_cycle;Max_cycle;Signal;HPM_P1;HPM_P2
2021/03/17 00:01:40;;;;;;;12.63;8.30;;;4.50;99.90;;;;;;5054522;28;20246;-49
2021/03/17 00:04:25;;;;;;;12.82;9.10;;;4.40;99.90;;;;;;5053897;28;20270;-48
2021/03/17 00:07:10;;;;;;;12.38;9.05;;;4.30;99.90;;;;;;5054592;28;20214;-48
2021/03/17 00:09:55;;;;;;;15.43;7.88;;;4.50;99.90;;;;;;5054434;28;20295;-48
2021/03/17 00:12:40;;;;;;;15.32;8.75;;;4.60;99.90;;;;;;5053594;28;20227;-49
2021/03/17 00:15:27;;;;;;;17.48;8.27;;;4.40;99.90;;;;;;5054249;28;20199;-48
2021/03/17 00:18:14;;;;;;;13.95;8.73;;;4.60;99.90;;;;;;5053666;28;20265;-48
2021/03/17 00:20:59;;;;;;;18.05;8.23;;;4.70;99.90;;;;;;5054176;28;20290;-48
2021/03/17 00:23:45;;;;;;;15.52;12.05;;;4.40;99.90;;;;;;5054005;28;20299;-48
2021/03/17 00:26:29;;;;;;;17.40;8.70;;;4.90;99.90;;;;;;5054089;28;20561;-48
2021/03/17 00:29:14;;;;;;;16.30;8.93;;;4.60;99.90;;;;;;5054192;28;20207;-47
2021/03/17 00:31:59;;;;;;;12.85;8.50;;;4.90;99.90;;;;;;5053729;28;20329;-46
2021/03/17 00:34:44;;;;;;;14.10;7.88;;;4.70;99.90;;;;;;5053201;28;20199;-47
2021/03/17 00:37:28;;;;;;;13.52;7.85;;;4.70;99.90;;;;;;5053600;28;20242;-48
2021/03/17 00:40:14;;;;;;;11.43;7.40;;;5.20;99.90;;;;;;5053456;28;20207;-48
2021/03/17 00:42:59;;;;;;;9.50;7.50;;;4.70;99.90;;;;;;5053324;28;20278;-48
2021/03/17 00:45:44;;;;;;;9.85;7.25;;;5.00;99.90;;;;;;5053746;28;20534;-48
2021/03/17 00:48:14;;;;;;;16.88;7.68;;;5.20;99.90;;;;;;5053462;28;20208;-48
2021/03/17 00:50:47;;;;;;;14.13;8.23;;;5.00;99.90;;;;;;5035337;28;20639;-48
2021/03/17 00:53:14;;;;;;;9.60;7.75;;;5.30;99.90;;;;;;5052906;28;20243;-48
2021/03/17 00:55:40;;;;;;;13.02;8.85;;;5.10;99.90;;;;;;5035107;28;20192;-48
2021/03/17 00:58:15;;;;;;;9.93;7.82;;;5.20;99.90;;;;;;5035210;28;20667;-48
2021/03/17 01:00:42;;;;;;;10.20;7.95;;;4.80;99.90;;;;;;5034925;28;20290;-47
2021/03/17 01:03:08;;;;;;;14.75;9.30;;;5.20;99.90;;;;;;5052252;28;20231;-48
2021/03/17 01:05:40;;;;;;;13.35;8.25;;;5.20;99.90;;;;;;5052989;28;20283;-48
2021/03/17 01:08:06;;;;;;;12.43;9.00;;;5.30;99.90;;;;;;5052800;28;20192;-48
2021/03/17 01:10:35;;;;;;;12.18;8.80;;;4.30;99.90;;;;;;5052689;28;20562;-48
2021/03/17 01:13:02;;;;;;;13.85;8.65;;;5.10;99.90;;;;;;5034521;28;20247;-48
2021/03/17 01:15:29;;;;;;;13.80;8.93;;;4.80;99.90;;;;;;5052689;28;20286;-48
2021/03/17 01:17:55;;;;;;;14.98;8.90;;;4.80;99.90;;;;;;5052402;28;20597;-48
2021/03/17 01:20:24;;;;;;;16.58;9.95;;;5.20;99.90;;;;;;5052387;28;20196;-48
2021/03/17 01:22:51;;;;;;;14.23;10.23;;;4.90;99.90;;;;;;5051970;28;20603;-48
2021/03/17 01:25:23;;;;;;;14.18;9.32;;;4.70;99.90;;;;;;5052477;28;20230;-48
2021/03/17 01:27:49;;;;;;;17.60;9.95;;;5.10;99.90;;;;;;5052560;28;20893;-47
2021/03/17 01:30:18;;;;;;;13.25;9.52;;;5.00;99.90;;;;;;5052370;28;20265;-48
2021/03/17 01:32:45;;;;;;;14.20;10.10;;;5.00;99.90;;;;;;5051961;28;20231;-47
2021/03/17 01:35:13;;;;;;;18.13;10.18;;;4.60;99.90;;;;;;5052517;28;20701;-48
2021/03/17 01:37:40;;;;;;;15.70;10.43;;;4.70;99.90;;;;;;5052239;28;20199;-48
2021/03/17 01:40:09;;;;;;;14.98;10.07;;;4.50;99.90;;;;;;5052321;28;20224;-49
2021/03/17 01:42:36;;;;;;;14.35;9.35;;;4.50;99.90;;;;;;5052065;28;20242;-48
2021/03/17 01:45:05;;;;;;;13.85;10.35;;;4.60;99.90;;;;;;5051965;28;20683;-48
2021/03/17 01:47:31;;;;;;;15.82;10.10;;;4.90;99.90;;;;;;5051991;28;20283;-48
2021/03/17 01:49:58;;;;;;;12.93;10.40;;;5.10;99.90;;;;;;5034241;28;20298;-48
2021/03/17 01:52:24;;;;;;;13.48;9.88;;;4.40;99.90;;;;;;5051566;28;20223;-48
2021/03/17 01:54:52;;;;;;;15.02;9.77;;;4.30;99.90;;;;;;5051938;28;20283;-48
2021/03/17 01:57:19;;;;;;;14.15;9.30;;;4.60;99.90;;;;;;5051810;28;20668;-48
2021/03/17 01:59:45;;;;;;;15.77;10.60;;;4.30;99.90;;;;;;5051984;28;20199;-48
2021/03/17 02:02:13;;;;;;;12.15;9.80;;;4.40;99.90;;;;;;5051775;28;20283;-48
2021/03/17 02:04:39;;;;;;;16.38;9.40;;;4.70;99.90;;;;;;5052660;28;20216;-47
2021/03/17 02:07:05;;;;;;;14.82;9.75;;;4.20;99.90;;;;;;5055311;28;20196;-48
2021/03/17 02:09:31;;;;;;;17.25;9.57;;;4.30;99.90;;;;;;5054055;28;20192;-48
2021/03/17 02:12:06;;;;;;;14.73;8.70;;;4.40;99.90;;;;;;5052288;28;20207;-47
2021/03/17 02:14:45;;;;;;;14.52;9.93;;;4.40;99.90;;;;;;5051955;28;20183;-47
2021/03/17 02:17:14;;;;;;;15.38;9.80;;;4.60;99.90;;;;;;5051895;28;20196;-48
2021/03/17 02:20:17;;;;;;;16.30;10.00;;;4.50;99.90;;;;;;5051679;28;20676;-48
2021/03/17 02:22:48;;;;;;;13.48;9.10;;;4.60;99.90;;;;;;5051206;28;20215;-48
2021/03/17 02:25:48;;;;;;;15.95;9.13;;;4.20;99.90;;;;;;5051662;28;20204;-47
2021/03/17 02:28:27;;;;;;;17.52;10.50;;;4.20;99.90;;;;;;5051481;28;20200;-48
2021/03/17 02:31:22;;;;;;;13.65;9.45;;;4.10;99.90;;;;;;5051605;28;20247;-48
2021/03/17 02:33:54;;;;;;;16.10;10.80;;;4.30;99.90;;;;;;5037636;28;20251;-48
2021/03/17 02:36:26;;;;;;;19.15;10.80;;;4.10;99.90;;;;;;5051493;28;20683;-47
2021/03/17 02:38:57;;;;;;;17.50;11.40;;;3.70;99.90;;;;;;5051749;28;20188;-47
2021/03/17 02:41:28;;;;;;;14.55;10.23;;;4.20;99.90;;;;;;5052998;28;20211;-48
2021/03/17 02:43:58;;;;;;;19.75;12.30;;;4.10;99.90;;;;;;5055211;28;20479;-48
2021/03/17 02:46:27;;;;;;;14.63;10.35;;;4.10;99.90;;;;;;5055444;28;20249;-47
2021/03/17 02:49:01;;;;;;;19.90;11.40;;;4.00;99.90;;;;;;5055474;28;20200;-48
2021/03/17 02:51:33;;;;;;;15.52;11.00;;;3.60;99.90;;;;;;5055347;28;20223;-48
2021/03/17 02:54:02;;;;;;;17.65;11.25;;;4.40;99.90;;;;;;5055788;28;20257;-48
2021/03/17 02:56:32;;;;;;;18.55;10.55;;;3.70;99.90;;;;;;5055648;28;20254;-47
2021/03/17 02:59:00;;;;;;;21.50;12.90;;;4.40;99.90;;;;;;5056098;28;20188;-47
2021/03/17 03:01:29;;;;;;;16.25;10.88;;;3.90;99.90;;;;;;5055805;28;20184;-47
2021/03/17 03:03:57;;;;;;;18.20;12.90;;;4.60;99.90;;;;;;5068316;22;20285;-46
2021/03/17 03:06:26;;;;;;;19.52;11.52;;;4.40;99.90;;;;;;5054901;28;20203;-45
2021/03/17 03:08:53;;;;;;;18.75;12.95;;;4.10;99.90;;;;;;5054961;28;20283;-44
2021/03/17 03:11:20;;;;;;;20.05;11.25;;;4.20;99.90;;;;;;5055029;28;20306;-44
2021/03/17 03:13:50;;;;;;;15.77;11.80;;;4.20;99.90;;;;;;5054590;28;20204;-44
2021/03/17 03:16:17;;;;;;;17.90;12.30;;;3.80;99.90;;;;;;5054751;28;20202;-43
2021/03/17 03:18:47;;;;;;;28.08;14.02;;;4.40;99.90;;;;;;5054629;28;20192;-44
2021/03/17 03:21:16;;;;;;;18.25;11.90;;;4.00;99.90;;;;;;5054616;28;20203;-45
2021/03/17 03:23:43;;;;;;;18.75;10.90;;;4.10;99.90;;;;;;5054147;28;20719;-44
2021/03/17 03:26:10;;;;;;;19.63;12.77;;;4.50;99.90;;;;;;5054823;28;20191;-44
2021/03/17 03:28:37;;;;;;;19.95;12.75;;;4.40;99.90;;;;;;5054622;28;20727;-44
2021/03/17 03:31:04;;;;;;;22.13;11.68;;;4.50;99.90;;;;;;5053288;28;20283;-46
2021/03/17 03:33:30;;;;;;;20.45;12.27;;;4.20;99.90;;;;;;5035216;28;20212;-45
2021/03/17 03:35:57;;;;;;;18.45;14.00;;;4.50;99.90;;;;;;5054572;28;20196;-45
2021/03/17 03:38:24;;;;;;;14.18;11.15;;;3.90;99.90;;;;;;5054338;28;20200;-44
2021/03/17 03:40:50;;;;;;;21.55;11.98;;;4.30;99.90;;;;;;5054323;28;20271;-43
2021/03/17 03:43:16;;;;;;;22.05;12.55;;;4.20;99.90;;;;;;5053826;28;20314;-45
2021/03/17 03:45:43;;;;;;;19.15;13.70;;;4.40;99.90;;;;;;5054173;28;20282;-45
2021/03/17 03:48:11;;;;;;;18.52;11.15;;;3.70;99.90;;;;;;5054304;28;20235;-45
2021/03/17 03:50:40;;;;;;;17.98;12.35;;;4.00;99.90;;;;;;5036490;28;20232;-45
2021/03/17 03:53:13;;;;;;;21.02;12.40;;;4.00;99.90;;;;;;5052591;28;20298;-45
2021/03/17 03:55:49;;;;;;;19.15;12.75;;;4.10;99.90;;;;;;5053969;28;20556;-45
2021/03/17 03:58:23;;;;;;;19.52;13.57;;;4.20;99.90;;;;;;5053841;28;20200;-45
2021/03/17 04:00:49;;;;;;;18.10;12.30;;;4.40;99.90;;;;;;5054459;28;20195;-45
2021/03/17 04:03:18;;;;;;;20.42;13.60;;;4.10;99.90;;;;;;5053773;28;20310;-45
2021/03/17 04:05:46;;;;;;;23.45;13.95;;;4.10;99.90;;;;;;5054282;28;20660;-45
2021/03/17 04:08:18;;;;;;;22.42;15.13;;;3.70;99.90;;;;;;5054158;28;20278;-45
2021/03/17 04:10:51;;;;;;;20.05;13.52;;;3.50;99.90;;;;;;5054490;28;20221;-45
2021/03/17 04:13:19;;;;;;;19.25;13.27;;;4.30;99.90;;;;;;5036098;28;20246;-44
2021/03/17 04:15:47;;;;;;;18.30;12.43;;;4.10;99.90;;;;;;5054522;28;20579;-45
2021/03/17 04:18:15;;;;;;;19.58;12.38;;;3.90;99.90;;;;;;5054381;28;20231;-44
2021/03/17 04:20:45;;;;;;;19.70;13.55;;;4.00;99.90;;;;;;5054074;28;20200;-45
2021/03/17 04:23:12;;;;;;;23.17;13.32;;;3.70;99.90;;;;;;5053196;28;20247;-44
2021/03/17 04:25:44;;;;;;;23.60;13.75;;;3.70;99.90;;;;;;5053492;28;20775;-44
2021/03/17 04:28:14;;;;;;;25.17;13.73;;;4.10;99.90;;;;;;5053506;28;20202;-44
2021/03/17 04:30:42;;;;;;;17.95;12.60;;;3.90;99.90;;;;;;5053469;28;20675;-44
2021/03/17 04:33:09;;;;;;;27.02;14.18;;;4.00;99.90;;;;;;5052988;28;20212;-44
2021/03/17 04:35:36;;;;;;;25.98;13.05;;;3.90;99.90;;;;;;5053225;28;20739;-44
2021/03/17 04:38:04;;;;;;;25.10;14.32;;;3.80;99.90;;;;;;5053267;28;20211;-44
2021/03/17 04:40:31;;;;;;;23.58;15.48;;;3.80;99.90;;;;;;5053170;28;20299;-45
2021/03/17 04:42:58;;;;;;;22.55;13.85;;;3.80;99.90;;;;;;5052811;28;20219;-44
2021/03/17 04:45:25;;;;;;;23.23;14.27;;;3.90;99.90;;;;;;5052967;28;20246;-44
2021/03/17 04:47:54;;;;;;;21.38;14.82;;;3.70;99.90;;;;;;5053100;28;20204;-44
2021/03/17 04:50:23;;;;;;;24.50;14.23;;;3.90;99.90;;;;;;5052887;28;20275;-44
2021/03/17 04:52:50;;;;;;;25.73;14.27;;;3.90;99.90;;;;;;5053010;28;20216;-44
2021/03/17 04:55:16;;;;;;;24.73;15.20;;;3.70;99.90;;;;;;5052882;28;20191;-45
2021/03/17 04:57:44;;;;;;;25.85;14.85;;;3.50;99.90;;;;;;5053164;28;20295;-45
2021/03/17 05:00:14;;;;;;;24.10;14.90;;;3.20;99.90;;;;;;5052977;28;20227;-44
2021/03/17 05:02:45;;;;;;;26.42;14.50;;;3.70;99.90;;;;;;5052622;28;20253;-45
2021/03/17 05:05:14;;;;;;;19.90;13.60;;;3.90;99.90;;;;;;5052485;28;20398;-44
2021/03/17 05:07:41;;;;;;;22.88;14.18;;;3.70;99.90;;;;;;5052834;28;20203;-45
2021/03/17 05:10:09;;;;;;;20.75;14.20;;;3.00;99.90;;;;;;5052966;28;20610;-45
2021/03/17 05:12:38;;;;;;;24.52;15.10;;;3.40;99.90;;;;;;5052333;28;20200;-45
2021/03/17 05:15:06;;;;;;;21.30;13.75;;;3.10;99.90;;;;;;5034735;28;20203;-45
2021/03/17 05:17:33;;;;;;;19.60;13.15;;;4.00;99.90;;;;;;5052566;28;20212;-44
2021/03/17 05:20:01;;;;;;;19.92;13.85;;;3.60;99.90;;;;;;5052677;28;20511;-44
2021/03/17 05:22:29;;;;;;;23.75;14.45;;;3.80;99.90;;;;;;5052221;28;20200;-44
2021/03/17 05:24:56;;;;;;;18.60;13.57;;;3.60;99.90;;;;;;5052346;28;20306;-43
2021/03/17 05:27:27;;;;;;;23.88;15.10;;;3.80;99.90;;;;;;5052310;28;20192;-43
2021/03/17 05:29:56;;;;;;;20.55;14.38;;;3.60;99.90;;;;;;5052401;28;20210;-42
2021/03/17 05:32:23;;;;;;;20.67;14.35;;;3.50;99.90;;;;;;5051892;28;20287;-46
2021/03/17 05:34:56;;;;;;;22.70;14.57;;;3.50;99.90;;;;;;5052670;28;20215;-44
2021/03/17 05:37:24;;;;;;;21.90;14.60;;;3.90;99.90;;;;;;5034554;28;20281;-45
2021/03/17 05:39:50;;;;;;;21.25;13.45;;;3.70;99.90;;;;;;5052392;28;20688;-46
2021/03/17 05:42:17;;;;;;;18.85;14.50;;;3.70;99.90;;;;;;5051811;28;20188;-44
2021/03/17 05:44:43;;;;;;;27.50;13.88;;;3.70;99.90;;;;;;5051919;28;20247;-45
2021/03/17 05:47:11;;;;;;;24.65;15.02;;;3.70;99.90;;;;;;5052093;28;20188;-43
2021/03/17 05:49:38;;;;;;;30.92;14.77;;;3.70;99.90;;;;;;5051509;28;20192;-43
2021/03/17 05:52:07;;;;;;;24.25;14.00;;;3.70;99.90;;;;;;5051639;28;20644;-43
2021/03/17 05:54:35;;;;;;;24.05;14.55;;;3.90;99.90;;;;;;5051396;28;20219;-43
2021/03/17 05:57:02;;;;;;;23.88;13.60;;;3.70;99.90;;;;;;5051672;28;20203;-44
2021/03/17 05:59:30;;;;;;;22.58;13.98;;;3.60;99.90;;;;;;5052058;28;20199;-45
2021/03/17 06:01:57;;;;;;;20.60;12.65;;;3.60;99.90;;;;;;5051731;28;20196;-44
2021/03/17 06:04:26;;;;;;;26.40;14.45;;;3.60;99.90;;;;;;5051557;28;20303;-45
2021/03/17 06:06:56;;;;;;;18.98;13.82;;;3.60;99.90;;;;;;5051405;28;20192;-44
2021/03/17 06:09:26;;;;;;;22.30;14.35;;;3.30;99.90;;;;;;5051845;28;20198;-45
2021/03/17 06:11:55;;;;;;;26.55;14.68;;;3.00;99.90;;;;;;5051829;28;20199;-44
2021/03/17 06:14:23;;;;;;;24.83;14.55;;;3.80;99.90;;;;;;5051130;28;20210;-45
2021/03/17 06:16:55;;;;;;;20.30;12.77;;;3.90;99.90;;;;;;5051104;28;20200;-45
2021/03/17 06:19:25;;;;;;;23.15;14.73;;;3.40;99.90;;;;;;5051815;28;20187;-45
2021/03/17 06:21:52;;;;;;;23.25;15.75;;;3.60;99.90;;;;;;5051548;28;20200;-44
2021/03/17 06:24:19;;;;;;;20.50;13.35;;;3.50;99.90;;;;;;5050847;28;20224;-44
2021/03/17 06:26:47;;;;;;;22.90;13.60;;;3.00;99.90;;;;;;5051223;28;20447;-44
2021/03/17 06:29:15;;;;;;;27.08;15.38;;;3.50;99.90;;;;;;5051072;28;20753;-45
2021/03/17 06:31:41;;;;;;;25.90;14.20;;;3.60;99.90;;;;;;5051357;28;20660;-45
2021/03/17 06:34:07;;;;;;;21.15;13.73;;;3.80;99.90;;;;;;5051150;28;20265;-46
2021/03/17 06:36:46;;;;;;;28.92;16.85;;;3.70;99.90;;;;;;5051186;28;20242;-46
2021/03/17 06:39:12;;;;;;;21.98;15.43;;;3.70;99.90;;;;;;5051434;28;20192;-46
2021/03/17 06:41:45;;;;;;;29.70;14.10;;;3.80;99.90;;;;;;5051506;28;20310;-45
2021/03/17 06:44:11;;;;;;;22.50;14.00;;;4.20;99.90;;;;;;5050948;28;20216;-45
2021/03/17 06:46:38;;;;;;;26.52;14.38;;;3.90;99.90;;;;;;5051020;28;20624;-46
2021/03/17 06:49:05;;;;;;;22.08;12.93;;;4.20;99.90;;;;;;5051352;28;20238;-46
2021/03/17 06:51:33;;;;;;;22.83;14.02;;;4.00;99.90;;;;;;5051246;28;20200;-45
2021/03/17 06:54:02;;;;;;;23.52;13.65;;;4.10;99.90;;;;;;5051389;28;20714;-45
2021/03/17 06:56:30;;;;;;;22.98;13.60;;;4.30;99.90;;;;;;5051317;28;20237;-43
2021/03/17 06:58:59;;;;;;;27.55;16.30;;;3.80;99.90;;;;;;5051684;28;20196;-43
2021/03/17 07:01:32;;;;;;;29.13;14.40;;;4.00;99.90;;;;;;5051087;28;20200;-45
2021/03/17 07:04:00;;;;;;;22.58;14.13;;;4.20;99.90;;;;;;5050665;28;20224;-44
2021/03/17 07:06:28;;;;;;;24.63;15.05;;;4.20;99.90;;;;;;5051537;28;20227;-44
2021/03/17 07:08:55;;;;;;;20.85;13.82;;;4.20;99.90;;;;;;5051411;28;20203;-45
2021/03/17 07:11:24;;;;;;;25.00;14.10;;;4.40;99.90;;;;;;5051610;28;20665;-43
2021/03/17 07:13:55;;;;;;;24.30;14.55;;;4.50;99.90;;;;;;5051113;28;20216;-45
2021/03/17 07:16:32;;;;;;;24.92;14.80;;;4.50;99.90;;;;;;5051186;28;20199;-44
2021/03/17 07:18:59;;;;;;;20.88;13.38;;;4.40;99.90;;;;;;5033623;28;20272;-44
2021/03/17 07:21:34;;;;;;;20.40;13.50;;;4.70;99.90;;;;;;5051120;28;20188;-44
2021/03/17 07:24:01;;;;;;;27.40;14.80;;;4.40;99.90;;;;;;5051425;28;20215;-44
2021/03/17 07:26:29;;;;;;;27.90;14.73;;;4.60;99.90;;;;;;5054141;28;20207;-46
2021/03/17 07:29:01;;;;;;;20.17;12.45;;;4.50;99.90;;;;;;5055923;28;20204;-43
2021/03/17 07:31:29;;;;;;;23.90;13.93;;;4.40;99.90;;;;;;5054932;28;20192;-43
2021/03/17 07:34:07;;;;;;;22.55;13.30;;;4.30;99.90;;;;;;5054832;28;20212;-44
2021/03/17 07:36:37;;;;;;;20.80;14.20;;;4.40;99.90;;;;;;5039448;28;20321;-45
2021/03/17 07:39:07;;;;;;;23.13;14.63;;;4.40;99.90;;;;;;5057612;28;20614;-45
2021/03/17 07:41:34;;;;;;;20.60;14.52;;;4.70;99.90;;;;;;5057838;28;20215;-45
2021/03/17 07:44:04;;;;;;;24.45;13.45;;;4.50;99.90;;;;;;5057398;28;20212;-45
2021/03/17 07:46:32;;;;;;;23.15;14.15;;;4.50;99.90;;;;;;5057671;28;20192;-44
2021/03/17 07:48:59;;;;;;;22.45;14.15;;;4.50;99.90;;;;;;5057304;28;20259;-44
2021/03/17 07:51:27;;;;;;;25.42;14.55;;;4.60;99.90;;;;;;5057256;28;20203;-45
2021/03/17 07:53:55;;;;;;;20.27;14.00;;;4.30;99.90;;;;;;5056671;28;20216;-45
2021/03/17 07:56:23;;;;;;;25.80;14.77;;;4.70;99.90;;;;;;5058606;28;20192;-45
2021/03/17 07:58:51;;;;;;;27.27;15.93;;;4.90;99.90;;;;;;5060387;28;20648;-46
2021/03/17 08:01:18;;;;;;;20.20;12.90;;;4.50;99.90;;;;;;5060314;28;20204;-44
2021/03/17 08:03:47;;;;;;;26.80;14.55;;;4.70;99.90;;;;;;5058798;28;20376;-43
2021/03/17 08:06:15;;;;;;;25.77;12.88;;;4.40;99.90;;;;;;5059115;28;20196;-43
2021/03/17 08:08:43;;;;;;;21.48;14.20;;;4.60;99.90;;;;;;5058454;28;20232;-44
2021/03/17 08:11:12;;;;;;;20.67;13.85;;;4.80;99.90;;;;;;5057637;28;20203;-46
2021/03/17 08:13:41;;;;;;;22.38;14.43;;;5.00;99.90;;;;;;5055039;28;20228;-44
2021/03/17 08:16:09;;;;;;;26.75;13.85;;;4.90;99.90;;;;;;5054431;28;20328;-45
2021/03/17 08:18:46;;;;;;;23.02;14.45;;;4.20;99.90;;;;;;5054332;28;20559;-44
2021/03/17 08:21:13;;;;;;;30.33;15.13;;;5.20;99.90;;;;;;5035148;28;20678;-43
2021/03/17 08:23:44;;;;;;;18.50;14.07;;;5.20;99.90;;;;;;5053287;28;20266;-45
2021/03/17 08:26:32;;;;;;;20.00;14.38;;;5.00;99.90;;;;;;5053605;28;20211;-44
2021/03/17 08:28:59;;;;;;;19.33;13.43;;;5.00;99.90;;;;;;5053627;28;20200;-45
2021/03/17 08:31:51;;;;;;;18.50;12.80;;;5.00;99.90;;;;;;5054718;28;20200;-44
2021/03/17 08:34:25;;;;;;;21.38;15.45;;;5.40;99.90;;;;;;5043635;28;20232;-44
2021/03/17 08:36:56;;;;;;;22.52;13.27;;;5.20;99.90;;;;;;5054398;28;20600;-45
2021/03/17 08:39:48;;;;;;;16.90;13.23;;;5.00;99.90;;;;;;5052812;28;20279;-45
2021/03/17 08:42:28;;;;;;;22.55;13.68;;;5.50;99.90;;;;;;5053168;28;20200;-45
2021/03/17 08:44:56;;;;;;;23.15;15.50;;;5.50;99.90;;;;;;5052253;28;20998;-45
2021/03/17 08:47:28;;;;;;;18.30;12.60;;;5.30;99.90;;;;;;5052994;28;20192;-46
2021/03/17 08:49:58;;;;;;;20.00;14.30;;;5.50;99.90;;;;;;5052950;28;20792;-44
2021/03/17 08:52:37;;;;;;;19.45;13.10;;;5.50;99.90;;;;;;5052467;28;20200;-45
2021/03/17 08:55:16;;;;;;;18.27;13.10;;;5.40;99.90;;;;;;5053056;28;20274;-45
2021/03/17 08:58:06;;;;;;;22.35;16.02;;;5.50;99.90;;;;;;5052851;28;20302;-45
2021/03/17 09:00:53;;;;;;;24.67;14.60;;;5.40;99.90;;;;;;5035294;28;20306;-45
2021/03/17 09:03:51;;;;;;;19.30;13.35;;;5.60;99.90;;;;;;5053212;28;20223;-45
2021/03/17 09:06:29;;;;;;;22.00;13.00;;;5.00;99.90;;;;;;5052076;28;20306;-45
2021/03/17 09:09:17;;;;;;;17.67;13.68;;;5.50;99.90;;;;;;5052054;28;20580;-45
2021/03/17 09:11:52;;;;;;;22.80;13.60;;;5.50;99.90;;;;;;5041410;28;20211;-45
2021/03/17 09:14:23;;;;;;;23.37;14.40;;;5.10;99.90;;;;;;5051483;28;20602;-45
2021/03/17 09:17:10;;;;;;;20.60;13.20;;;5.40;99.90;;;;;;5052083;28;20537;-45
2021/03/17 09:20:16;;;;;;;22.70;14.02;;;5.60;99.90;;;;;;5051984;28;20198;-45
2021/03/17 09:23:05;;;;;;;18.97;13.10;;;5.80;99.90;;;;;;5051533;28;20203;-45
2021/03/17 09:25:34;;;;;;;20.58;14.00;;;5.80;99.90;;;;;;5051676;28;20520;-46
2021/03/17 09:28:05;;;;;;;20.20;13.40;;;5.80;99.90;;;;;;5051909;28;20198;-45
2021/03/17 09:30:47;;;;;;;16.67;12.32;;;5.80;99.90;;;;;;5051801;28;20226;-45
2021/03/17 09:33:16;;;;;;;24.17;14.60;;;6.00;99.90;;;;;;5051047;28;20452;-45
2021/03/17 09:35:49;;;;;;;17.37;12.20;;;6.00;99.90;;;;;;5051544;28;20209;-45
2021/03/17 09:38:18;;;;;;;18.45;12.80;;;5.90;99.90;;;;;;5051521;28;20435;-45
2021/03/17 09:40:58;;;;;;;17.83;13.30;;;6.00;99.90;;;;;;5051930;28;20200;-46
2021/03/17 09:43:44;;;;;;;19.20;14.33;;;6.10;99.90;;;;;;5051833;28;20462;-46
2021/03/17 09:46:27;;;;;;;20.10;13.67;;;6.40;99.90;;;;;;5051826;28;20452;-45
2021/03/17 09:48:56;;;;;;;20.80;13.17;;;6.20;99.90;;;;;;5051565;28;20438;-46
2021/03/17 09:51:25;;;;;;;20.47;13.80;;;6.30;99.90;;;;;;5050832;28;20427;-46
2021/03/17 09:53:54;;;;;;;18.00;11.90;;;6.50;99.90;;;;;;5051459;28;20486;-46
2021/03/17 09:56:40;;;;;;;18.10;13.20;;;6.40;99.90;;;;;;5033541;28;20477;-46
2021/03/17 09:59:19;;;;;;;19.70;12.90;;;6.40;99.90;;;;;;5051094;28;20455;-46
2021/03/17 10:01:57;;;;;;;18.73;12.20;;;6.40;99.90;;;;;;5052145;28;20443;-46
2021/03/17 10:04:27;;;;;;;14.33;10.60;;;6.40;99.90;;;;;;5051891;28;20486;-46
2021/03/17 10:06:53;;;;;;;17.73;12.47;;;6.50;99.90;;;;;;5051804;28;20434;-46
2021/03/17 10:09:21;;;;;;;14.93;11.90;;;6.80;99.90;;;;;;5051675;28;20435;-46
2021/03/17 10:11:49;;;;;;;14.17;10.00;;;6.30;99.90;;;;;;5051402;28;20431;-46
2021/03/17 10:14:18;;;;;;;15.27;11.47;;;6.70;99.90;;;;;;5050879;28;20452;-46
2021/03/17 10:16:45;;;;;;;12.57;8.87;;;6.60;99.90;;;;;;5033209;28;20447;-46
2021/03/17 10:19:15;;;;;;;15.10;11.47;;;6.70;99.90;;;;;;5050934;28;20483;-46
2021/03/17 10:21:42;;;;;;;13.67;10.83;;;7.10;99.90;;;;;;5050803;28;21136;-46
2021/03/17 10:24:10;;;;;;;15.43;10.80;;;6.80;99.90;;;;;;5050979;28;20982;-46
2021/03/17 10:26:37;;;;;;;13.50;10.13;;;6.90;99.90;;;;;;5051460;28;20530;-46
2021/03/17 10:29:05;;;;;;;11.40;9.47;;;7.20;99.90;;;;;;5051275;28;20454;-46
2021/03/17 10:31:34;;;;;;;14.23;9.80;;;7.20;99.90;;;;;;5051217;28;20432;-46
2021/03/17 10:34:02;;;;;;;12.53;9.00;;;6.90;99.90;;;;;;5050408;28;20538;-45
2021/03/17 10:36:37;;;;;;;12.07;9.87;;;6.80;99.90;;;;;;5050508;28;20423;-45
2021/03/17 10:39:04;;;;;;;13.00;10.50;;;7.10;99.90;;;;;;5050643;28;20914;-45
2021/03/17 10:41:44;;;;;;;12.70;9.53;;;7.00;99.90;;;;;;5052056;28;20786;-46
2021/03/17 10:44:13;;;;;;;19.83;9.63;;;7.00;99.90;;;;;;5053450;28;20468;-45
2021/03/17 10:47:05;;;;;;;14.63;9.87;;;7.00;99.90;;;;;;5053250;28;20935;-45
2021/03/17 10:49:34;;;;;;;11.20;8.70;;;7.20;99.90;;;;;;5050981;28;20915;-45
2021/03/17 10:52:01;;;;;;;10.07;7.80;;;6.80;99.90;;;;;;5051644;28;20471;-45
2021/03/17 10:54:29;;;;;;;9.87;8.40;;;7.00;99.90;;;;;;5050745;28;20517;-45
2021/03/17 10:56:56;;;;;;;13.93;8.67;;;6.60;99.90;;;;;;5050942;28;20471;-45
2021/03/17 10:59:25;;;;;;;9.73;7.87;;;6.70;99.90;;;;;;5051337;28;20865;-46
2021/03/17 11:02:19;;;;;;;11.63;9.17;;;6.80;99.90;;;;;;5052300;28;20456;-46
2021/03/17 11:05:09;;;;;;;10.23;8.07;;;6.50;99.90;;;;;;5054902;28;20916;-46
2021/03/17 11:08:11;;;;;;;14.07;8.70;;;6.60;99.90;;;;;;5055230;28;20521;-46
2021/03/17 11:11:04;;;;;;;14.47;11.13;;;6.50;99.90;;;;;;5054646;28;20435;-47
2021/03/17 11:13:44;;;;;;;12.53;9.87;;;6.50;99.90;;;;;;5047791;28;20558;-47
2021/03/17 11:16:35;;;;;;;13.33;9.33;;;6.20;99.90;;;;;;5054134;28;20448;-46
2021/03/17 11:19:11;;;;;;;14.50;10.07;;;6.40;99.90;;;;;;5054045;28;20452;-46
2021/03/17 11:21:40;;;;;;;14.97;9.50;;;6.40;99.90;;;;;;5054034;28;20442;-46
2021/03/17 11:24:15;;;;;;;11.90;9.30;;;6.50;99.90;;;;;;5053277;28;20531;-46
2021/03/17 11:26:45;;;;;;;13.13;8.70;;;6.50;99.90;;;;;;5054079;28;20406;-46
2021/03/17 11:29:14;;;;;;;15.17;8.73;;;6.60;99.90;;;;;;5054298;28;20529;-46
2021/03/17 11:31:42;;;;;;;13.60;9.43;;;6.80;99.90;;;;;;5053683;28;20504;-46
2021/03/17 11:34:11;;;;;;;11.07;8.53;;;6.50;99.90;;;;;;5053192;28;20466;-46
2021/03/17 11:36:38;;;;;;;11.03;9.83;;;6.70;99.90;;;;;;5053684;28;20432;-46
2021/03/17 11:39:06;;;;;;;9.57;7.00;;;6.50;99.90;;;;;;5053789;28;20584;-46
2021/03/17 11:41:33;;;;;;;11.23;8.67;;;6.40;99.90;;;;;;5053825;28;20432;-46
2021/03/17 11:43:59;;;;;;;10.40;8.13;;;6.70;99.90;;;;;;5035330;28;20478;-46
2021/03/17 11:46:25;;;;;;;9.90;7.07;;;6.60;99.90;;;;;;5053467;28;20466;-45
2021/03/17 11:48:52;;;;;;;9.20;7.17;;;6.80;99.90;;;;;;5036392;28;20484;-45
2021/03/17 11:51:21;;;;;;;10.73;6.30;;;7.10;99.90;;;;;;5035704;28;20444;-44
2021/03/17 11:53:47;;;;;;;10.63;6.37;;;6.80;99.90;;;;;;5052960;28;20581;-45
2021/03/17 11:56:13;;;;;;;10.77;6.70;;;6.90;99.90;;;;;;5053780;28;20433;-44
2021/03/17 11:58:40;;;;;;;8.30;5.87;;;7.30;99.90;;;;;;5053507;28;20443;-46
2021/03/17 12:01:28;;;;;;;10.37;6.80;;;7.30;99.90;;;;;;5053630;28;20432;-45
2021/03/17 12:03:55;;;;;;;12.00;7.23;;;7.50;99.90;;;;;;5034737;28;20511;-45
2021/03/17 12:06:30;;;;;;;8.60;6.10;;;7.70;99.90;;;;;;5053657;28;20989;-45
2021/03/17 12:08:57;;;;;;;9.10;6.60;;;7.70;99.90;;;;;;5053305;28;20442;-45
2021/03/17 12:15:13;;;;;;;7.73;6.60;;;7.80;99.90;;;;;;5052569;28;20470;-47
2021/03/17 12:17:40;;;;;;;8.93;5.40;;;7.90;99.90;;;;;;5053180;28;20441;-45
2021/03/17 12:20:08;;;;;;;8.30;6.10;;;7.50;99.90;;;;;;5052957;28;21014;-46
2021/03/17 12:22:36;;;;;;;8.77;6.83;;;7.80;99.90;;;;;;5052811;28;20535;-46
2021/03/17 12:25:04;;;;;;;9.17;7.80;;;7.80;99.90;;;;;;5053380;28;20536;-46
2021/03/17 12:27:31;;;;;;;8.27;6.30;;;7.40;99.90;;;;;;5053122;28;20537;-44
2021/03/17 12:29:59;;;;;;;8.60;6.10;;;6.80;99.90;;;;;;5053072;28;20811;-45
2021/03/17 12:32:25;;;;;;;7.43;5.67;;;7.40;99.90;;;;;;5053028;28;20540;-44
2021/03/17 12:34:53;;;;;;;13.40;9.43;;;7.40;99.90;;;;;;5052964;28;20486;-45
2021/03/17 12:37:19;;;;;;;10.90;6.10;;;7.50;99.90;;;;;;5053360;28;20435;-46
2021/03/17 12:39:46;;;;;;;7.40;6.10;;;7.80;99.90;;;;;;5054704;28;20441;-45
2021/03/17 12:42:13;;;;;;;7.30;5.50;;;7.50;99.90;;;;;;5036096;28;20448;-45
2021/03/17 12:44:40;;;;;;;6.97;5.10;;;7.70;99.90;;;;;;5052732;28;21046;-46
2021/03/17 12:47:08;;;;;;;7.60;4.40;;;7.80;99.90;;;;;;5052751;28;20750;-44
2021/03/17 12:49:35;;;;;;;6.40;5.60;;;8.10;99.90;;;;;;5052562;28;20448;-45
2021/03/17 12:52:01;;;;;;;5.33;4.30;;;8.20;99.90;;;;;;5052475;28;20516;-46
2021/03/17 12:54:28;;;;;;;4.47;3.83;;;8.20;99.90;;;;;;5052523;28;20457;-46
2021/03/17 12:56:55;;;;;;;6.90;3.80;;;8.20;99.90;;;;;;5052688;28;20434;-45
2021/03/17 12:59:22;;;;;;;5.90;4.40;;;8.40;99.90;;;;;;5052320;28;20473;-44
2021/03/17 13:01:49;;;;;;;5.60;5.00;;;8.70;99.90;;;;;;5052454;28;20942;-44
2021/03/17 13:04:16;;;;;;;5.20;4.20;;;8.80;99.90;;;;;;5052316;28;20513;-45
2021/03/17 13:06:43;;;;;;;4.83;4.20;;;8.80;99.90;;;;;;5051410;28;20441;-44